Franklin, Indiana
Current Conditions -  °F | °C
As of 1:53 AM on Sunday 23 Nov 2014 (Local Time) from KGEZ Reporting Station
Light Rain Light Rain  
Wind Chill: 47°   Ceiling: 5000
Heat Index: 49°   Visibility: 9mi
Dew Point: 38°   Wind: 6mph
Humidity: 66%   Direction: 180°S
Pressure: 30"   Gusts: NA
Location:  39.48°N, 86.06°W
Report Text: KGEZ 230653Z AUTO 18005KT 9SM -RA BKN050 BKN060 OVC085 09/03 A3000 RMK AO2 RAB0555E27B51 SLP158 P0000 T00940033
Loading
Personal Weather Stations






























Interactive Weather Map New forecast layout! Learn more

10-Day Weather Forecast

Advertisements
Track Severe Weather on mobile